Yorkville, New York
Current Conditions -  °F | °C
As of 6:53 AM on Wednesday 28 Jan 2015 (Local Time) from KRME Reporting Station
Clear Clear  
Wind Chill: -8°   Ceiling: Unl
Heat Index:   Visibility: 10mi
Dew Point: -6°   Wind: 5mph
Humidity: 69%   Direction: 330°NNW
Pressure: 30.15"   Gusts: NA
Location:  43.11°N, 75.27°W
Report Text: KRME 281153Z 33004KT 10SM CLR M17/M21 A3015 RMK AO2 SLP219 T11671211 11133 21172 53032
Loading
Personal Weather Stations






























Interactive Weather Map New forecast layout! Learn more

10-Day Weather Forecast

Advertisements
Track Severe Weather on mobile